createdAt,value
2018-05-12T00:00:10.394Z,28.97
2018-05-12T00:02:37.950Z,33.53
2018-05-12T00:05:05.518Z,32.33
2018-05-12T00:07:33.113Z,36.80
2018-05-12T00:10:00.669Z,33.27
2018-05-12T00:12:28.190Z,35.30
2018-05-12T00:14:55.834Z,33.37
2018-05-12T00:17:23.407Z,30.90
2018-05-12T00:19:50.970Z,34.23
2018-05-12T00:22:18.551Z,30.30
2018-05-12T00:24:46.119Z,30.27
2018-05-12T00:27:13.668Z,29.93
2018-05-12T00:29:41.210Z,29.80
2018-05-12T00:32:08.721Z,29.70
2018-05-12T00:34:36.300Z,30.70
2018-05-12T00:37:03.873Z,29.17
2018-05-12T00:39:31.414Z,32.07
2018-05-12T00:41:58.980Z,35.07
2018-05-12T00:44:26.555Z,36.00
2018-05-12T00:46:54.117Z,37.50
2018-05-12T00:49:21.709Z,34.67
2018-05-12T00:51:49.254Z,30.83
2018-05-12T00:54:16.776Z,33.73
2018-05-12T00:56:44.362Z,30.43
2018-05-12T00:59:11.873Z,30.60
2018-05-12T01:01:39.394Z,34.60
2018-05-12T01:04:07.035Z,29.03
2018-05-12T01:06:34.607Z,30.97
2018-05-12T01:09:02.158Z,31.60
2018-05-12T01:11:29.786Z,34.37
2018-05-12T01:13:57.350Z,34.17
2018-05-12T01:16:25.934Z,31.77
2018-05-12T01:18:53.556Z,32.20
2018-05-12T01:21:21.128Z,32.57
2018-05-12T01:23:48.685Z,31.40
2018-05-12T01:26:16.250Z,31.37
2018-05-12T01:28:43.770Z,36.80
2018-05-12T01:31:11.295Z,33.40
2018-05-12T01:33:38.845Z,36.10
2018-05-12T01:36:06.350Z,31.33
2018-05-12T01:38:33.883Z,30.73
2018-05-12T01:41:01.443Z,35.50
2018-05-12T01:43:29.014Z,35.07
2018-05-12T01:45:56.607Z,29.77
2018-05-12T01:48:24.390Z,30.20
2018-05-12T01:50:51.929Z,32.20
2018-05-12T01:53:19.506Z,36.87
2018-05-12T01:55:47.081Z,35.90
2018-05-12T01:58:14.652Z,34.77
2018-05-12T02:00:42.183Z,34.37
2018-05-12T02:03:09.835Z,27.30
2018-05-12T02:05:37.354Z,28.10
2018-05-12T02:08:04.900Z,31.57
2018-05-12T02:10:32.466Z,31.93
2018-05-12T02:13:00.070Z,31.73
2018-05-12T02:15:27.673Z,37.17
2018-05-12T02:17:55.269Z,42.47
2018-05-12T02:20:22.798Z,36.50
2018-05-12T02:22:50.363Z,34.47
2018-05-12T02:25:18.023Z,32.37
2018-05-12T02:27:45.589Z,32.53
2018-05-12T02:30:13.123Z,36.57
2018-05-12T02:32:40.701Z,35.30
2018-05-12T02:35:08.218Z,34.10
2018-05-12T02:37:35.815Z,36.40
2018-05-12T02:40:03.981Z,37.43
2018-05-12T02:42:31.491Z,38.70
2018-05-12T02:44:59.637Z,38.17
2018-05-12T02:47:27.202Z,35.57
2018-05-12T02:49:54.709Z,39.27
2018-05-12T02:52:22.258Z,37.17
2018-05-12T02:54:49.817Z,42.33
2018-05-12T02:57:17.399Z,48.13
2018-05-12T02:59:44.934Z,41.60
2018-05-12T03:02:12.474Z,44.23
2018-05-12T03:04:40.020Z,46.90
2018-05-12T03:07:07.559Z,36.97
2018-05-12T03:09:35.103Z,41.50
2018-05-12T03:12:02.614Z,44.37
2018-05-12T03:14:30.134Z,45.17
2018-05-12T03:16:57.716Z,43.50
2018-05-12T03:19:25.259Z,47.57
2018-05-12T03:21:52.820Z,42.50
2018-05-12T03:24:20.713Z,40.27
2018-05-12T03:26:48.240Z,39.73
2018-05-12T03:29:15.812Z,42.70
2018-05-12T03:31:43.379Z,44.97
2018-05-12T03:34:10.919Z,41.53
2018-05-12T03:36:38.442Z,39.70
2018-05-12T03:39:06.011Z,44.70
2018-05-12T03:41:33.572Z,38.83
2018-05-12T03:44:01.086Z,43.50
2018-05-12T03:46:28.655Z,44.10
2018-05-12T03:48:56.195Z,42.03
2018-05-12T03:51:23.777Z,45.57
2018-05-12T03:53:51.353Z,45.67
2018-05-12T03:56:18.882Z,45.43
2018-05-12T03:58:46.435Z,36.23
2018-05-12T04:01:14.032Z,35.33
2018-05-12T04:03:41.547Z,31.97
2018-05-12T04:06:20.930Z,31.93
2018-05-12T04:09:00.180Z,32.53
2018-05-12T04:11:40.441Z,29.97
2018-05-12T04:14:08.004Z,30.70
2018-05-12T04:16:36.314Z,28.90
2018-05-12T04:19:03.872Z,29.23
2018-05-12T04:21:31.386Z,34.83
2018-05-12T04:23:58.918Z,28.73
2018-05-12T04:26:26.493Z,34.33
2018-05-12T04:28:54.012Z,29.73
2018-05-12T04:31:21.540Z,28.17
2018-05-12T04:33:49.097Z,26.10
2018-05-12T04:36:16.635Z,26.10
2018-05-12T04:38:44.175Z,23.60
2018-05-12T04:41:12.617Z,26.57
2018-05-12T04:43:40.183Z,27.33
2018-05-12T04:46:07.733Z,27.63
2018-05-12T04:48:37.785Z,27.83
2018-05-12T04:51:05.302Z,31.37
2018-05-12T04:53:33.261Z,28.97
2018-05-12T04:56:00.826Z,30.90
2018-05-12T04:58:28.375Z,31.53
2018-05-12T05:00:55.946Z,29.20
2018-05-12T05:03:23.522Z,30.53
2018-05-12T05:05:51.170Z,32.70
2018-05-12T05:08:18.709Z,33.70
2018-05-12T05:10:46.245Z,32.63
2018-05-12T05:13:13.763Z,33.33
2018-05-12T05:15:41.264Z,32.50
2018-05-12T05:18:08.807Z,35.27
2018-05-12T05:20:36.320Z,32.53
2018-05-12T05:23:03.830Z,33.90
2018-05-12T05:25:31.403Z,32.43
2018-05-12T05:27:58.917Z,31.77
2018-05-12T05:30:26.429Z,34.07
2018-05-12T05:32:53.969Z,34.50
2018-05-12T05:35:21.475Z,33.20
2018-05-12T05:37:49.021Z,30.93
2018-05-12T05:40:16.563Z,31.83
2018-05-12T05:42:44.083Z,31.50
2018-05-12T05:45:11.647Z,31.07
2018-05-12T05:47:39.247Z,32.93
2018-05-12T05:50:06.980Z,33.03
2018-05-12T05:52:34.501Z,33.27
2018-05-12T05:55:02.088Z,35.60
2018-05-12T05:57:30.268Z,34.73
2018-05-12T05:59:58.170Z,32.87
2018-05-12T06:02:25.803Z,32.03
2018-05-12T06:04:53.418Z,30.83
2018-05-12T06:07:20.965Z,33.03
2018-05-12T06:09:48.544Z,30.80
2018-05-12T06:12:16.150Z,31.03
2018-05-12T06:14:43.736Z,28.13
2018-05-12T06:17:11.402Z,26.53
2018-05-12T06:19:38.943Z,27.83
2018-05-12T06:22:06.458Z,28.37
2018-05-12T06:24:34.038Z,28.53
2018-05-12T06:27:01.612Z,26.40
2018-05-12T06:29:29.163Z,26.53
2018-05-12T06:31:56.768Z,27.13
2018-05-12T06:34:24.405Z,27.97
2018-05-12T06:36:51.934Z,27.33
2018-05-12T06:39:19.583Z,30.40
2018-05-12T06:41:47.112Z,28.27
2018-05-12T06:44:14.683Z,28.33
2018-05-12T06:46:42.279Z,28.73
2018-05-12T06:49:09.819Z,29.07
2018-05-12T06:51:37.377Z,27.10
2018-05-12T06:54:04.965Z,29.40
2018-05-12T06:56:32.577Z,29.60
2018-05-12T06:59:00.136Z,28.40
2018-05-12T07:01:27.724Z,28.60
2018-05-12T07:03:55.251Z,30.23
2018-05-12T07:06:22.781Z,29.63
2018-05-12T07:08:50.341Z,29.60
2018-05-12T07:11:17.942Z,27.30
2018-05-12T07:13:45.482Z,26.43
2018-05-12T07:16:13.013Z,25.60
2018-05-12T07:18:40.600Z,22.20
2018-05-12T07:21:08.127Z,23.10
2018-05-12T07:23:36.428Z,21.57
2018-05-12T07:26:03.934Z,20.77
2018-05-12T07:28:31.446Z,19.67
2018-05-12T07:30:59.023Z,19.93
2018-05-12T07:33:26.585Z,20.33
2018-05-12T07:35:54.150Z,19.50
2018-05-12T07:38:21.778Z,20.52
2018-05-12T07:40:49.321Z,17.87
2018-05-12T07:43:16.844Z,19.05
2018-05-12T07:45:49.410Z,17.27
2018-05-12T07:48:19.392Z,16.75
2018-05-12T07:50:46.998Z,19.27
2018-05-12T07:53:14.511Z,26.65
2018-05-12T07:55:42.032Z,17.70
2018-05-12T07:58:09.592Z,22.05
2018-05-12T08:00:37.109Z,19.37
2018-05-12T08:03:04.614Z,17.20
2018-05-12T08:05:32.161Z,15.50
2018-05-12T08:07:59.687Z,15.70
2018-05-12T08:10:27.215Z,16.08
2018-05-12T08:12:54.843Z,16.23
2018-05-12T08:15:22.335Z,15.27
2018-05-12T08:17:49.869Z,14.27
2018-05-12T08:20:17.452Z,15.32
2018-05-12T08:22:45.091Z,16.95
2018-05-12T08:25:12.657Z,14.90
2018-05-12T08:27:40.205Z,14.87
2018-05-12T08:30:07.713Z,22.15
2018-05-12T08:32:35.211Z,14.13
2018-05-12T08:35:02.764Z,14.82
2018-05-12T08:37:30.303Z,15.35
2018-05-12T08:39:57.867Z,16.67
2018-05-12T08:42:25.452Z,15.40
2018-05-12T08:44:52.989Z,14.50
2018-05-12T08:47:20.514Z,16.40
2018-05-12T08:49:48.186Z,15.75
2018-05-12T08:52:15.726Z,12.20
2018-05-12T08:54:43.283Z,13.88
2018-05-12T08:57:10.834Z,13.55
2018-05-12T08:59:38.388Z,14.73
2018-05-12T09:02:05.911Z,14.43
2018-05-12T09:04:33.491Z,14.05
2018-05-12T09:07:01.038Z,19.85
2018-05-12T09:09:28.585Z,12.75
2018-05-12T09:11:56.145Z,11.45
2018-05-12T09:14:23.794Z,15.63
2018-05-12T09:16:52.298Z,14.15
2018-05-12T09:19:20.097Z,14.32
2018-05-12T09:21:47.614Z,11.52
2018-05-12T09:24:15.159Z,13.13
2018-05-12T09:26:42.725Z,14.48
2018-05-12T09:29:10.260Z,13.15
2018-05-12T09:31:37.802Z,14.40
2018-05-12T09:34:05.367Z,12.93
2018-05-12T09:36:32.904Z,12.05
2018-05-12T09:39:00.441Z,13.90
2018-05-12T09:41:30.587Z,12.35
2018-05-12T09:43:58.707Z,11.90
2018-05-12T09:46:26.377Z,11.23
2018-05-12T09:48:54.014Z,10.02
2018-05-12T09:51:21.577Z,15.73
2018-05-12T09:53:49.246Z,16.58
2018-05-12T09:56:16.802Z,14.48
2018-05-12T09:58:44.344Z,15.23
2018-05-12T10:01:11.935Z,13.67
2018-05-12T10:03:39.641Z,14.27
2018-05-12T10:06:07.291Z,15.27
2018-05-12T10:08:34.828Z,17.67
2018-05-12T10:11:02.465Z,14.90
2018-05-12T10:13:30.055Z,13.00
2018-05-12T10:15:57.574Z,10.73
2018-05-12T10:18:25.143Z,13.47
2018-05-12T10:20:52.646Z,10.93
2018-05-12T10:23:20.166Z,11.67
2018-05-12T10:25:47.707Z,12.53
2018-05-12T10:28:15.284Z,11.03
2018-05-12T10:30:42.803Z,9.17
2018-05-12T10:33:10.340Z,13.70
2018-05-12T10:35:37.878Z,13.83
2018-05-12T10:38:05.435Z,10.03
2018-05-12T10:40:32.994Z,13.07
2018-05-12T10:43:00.566Z,13.00
2018-05-12T10:45:28.223Z,11.13
2018-05-12T10:47:55.775Z,13.43
2018-05-12T10:50:23.357Z,11.47
2018-05-12T10:52:50.862Z,10.33
2018-05-12T10:55:18.430Z,9.03
2018-05-12T10:57:46.014Z,10.57
2018-05-12T11:00:13.556Z,9.23
2018-05-12T11:02:41.176Z,9.43
2018-05-12T11:05:08.746Z,9.33
2018-05-12T11:07:36.267Z,9.00
2018-05-12T11:10:03.908Z,9.53
2018-05-12T11:12:31.474Z,8.70
2018-05-12T11:14:59.026Z,8.43
2018-05-12T11:17:26.586Z,13.33
2018-05-12T11:19:54.162Z,7.90
2018-05-12T11:22:21.702Z,9.17
2018-05-12T11:24:50.094Z,9.67
2018-05-12T11:27:17.613Z,9.27
2018-05-12T11:29:45.133Z,11.97
2018-05-12T11:32:12.808Z,11.20
2018-05-12T11:34:40.425Z,9.43
2018-05-12T11:37:07.995Z,10.20
2018-05-12T11:39:35.652Z,12.70
2018-05-12T11:42:03.214Z,9.37
2018-05-12T11:44:30.872Z,10.20
2018-05-12T11:46:58.503Z,10.80
2018-05-12T11:49:26.096Z,11.30
2018-05-12T11:51:53.662Z,14.13
2018-05-12T11:54:21.206Z,13.23
2018-05-12T11:56:48.753Z,11.33
2018-05-12T11:59:16.282Z,12.67
2018-05-12T12:01:43.922Z,11.03
2018-05-12T12:04:11.457Z,9.70
2018-05-12T12:06:39.038Z,11.07
2018-05-12T12:09:06.606Z,14.03
2018-05-12T12:11:34.170Z,8.63
2018-05-12T12:14:02.150Z,14.10
2018-05-12T12:16:30.005Z,12.40
2018-05-12T12:18:57.537Z,9.57
2018-05-12T12:21:25.070Z,12.07
2018-05-12T12:23:52.650Z,9.87
2018-05-12T12:26:20.354Z,9.20
2018-05-12T12:28:48.700Z,9.13
2018-05-12T12:31:16.250Z,9.10
2018-05-12T12:33:43.741Z,9.47
2018-05-12T12:36:11.285Z,9.80
2018-05-12T12:41:04.657Z,11.03
2018-05-12T12:43:32.212Z,9.10
2018-05-12T12:45:59.729Z,8.90
2018-05-12T12:48:27.320Z,10.63
2018-05-12T12:50:54.871Z,13.13
2018-05-12T12:53:22.412Z,9.00
2018-05-12T12:55:49.979Z,7.30
2018-05-12T12:58:17.551Z,9.20
2018-05-12T13:00:45.158Z,12.50
2018-05-12T13:03:12.751Z,8.23
2018-05-12T13:05:40.274Z,11.33
2018-05-12T13:08:07.779Z,7.93
2018-05-12T13:10:35.351Z,19.47
2018-05-12T13:13:02.877Z,7.87
2018-05-12T13:15:30.464Z,7.80
2018-05-12T13:17:58.030Z,7.23
2018-05-12T13:20:25.558Z,8.40
2018-05-12T13:22:53.095Z,7.47
2018-05-12T13:25:20.647Z,6.57
2018-05-12T13:27:48.174Z,7.37
2018-05-12T13:30:15.699Z,6.53
2018-05-12T13:32:43.217Z,12.70
2018-05-12T13:35:10.711Z,7.73
2018-05-12T13:37:38.241Z,8.07
2018-05-12T13:40:05.757Z,6.27
2018-05-12T13:42:33.237Z,8.40
2018-05-12T13:45:00.726Z,6.37
2018-05-12T13:47:28.239Z,5.43
2018-05-12T13:49:55.721Z,5.40
2018-05-12T13:52:23.210Z,5.33
2018-05-12T13:54:50.734Z,5.30
2018-05-12T13:57:18.220Z,5.23
2018-05-12T13:59:45.707Z,4.97
2018-05-12T14:02:13.226Z,6.87
2018-05-12T14:04:40.713Z,5.77
2018-05-12T14:07:08.210Z,5.10
2018-05-12T14:09:36.692Z,4.63
2018-05-12T14:12:04.181Z,4.70
2018-05-12T14:14:31.670Z,4.40
2018-05-12T14:16:59.186Z,4.77
2018-05-12T14:19:26.687Z,4.93
2018-05-12T14:21:54.191Z,4.77
2018-05-12T14:24:21.730Z,3.57
2018-05-12T14:26:49.227Z,3.57
2018-05-12T14:29:16.719Z,4.17
2018-05-12T14:31:44.240Z,5.27
2018-05-12T14:34:11.724Z,3.80
2018-05-12T14:36:39.214Z,4.23
2018-05-12T14:39:06.731Z,5.53
2018-05-12T14:41:34.217Z,4.00
2018-05-12T14:44:01.705Z,3.63
2018-05-12T14:46:29.302Z,3.93
2018-05-12T14:48:56.729Z,3.87
2018-05-12T14:51:24.214Z,3.23
2018-05-12T14:53:51.730Z,4.83
2018-05-12T14:56:19.213Z,3.57
2018-05-12T14:58:46.693Z,4.07
2018-05-12T15:01:14.207Z,6.33
2018-05-12T15:03:41.709Z,3.37
2018-05-12T15:06:09.257Z,4.17
2018-05-12T15:08:36.775Z,5.67
2018-05-12T15:11:04.261Z,4.80
2018-05-12T15:13:31.757Z,3.90
2018-05-12T15:15:59.274Z,5.20
2018-05-12T15:18:26.770Z,4.03
2018-05-12T15:20:54.287Z,3.40
2018-05-12T15:23:21.798Z,4.30
2018-05-12T15:25:49.285Z,8.20
2018-05-12T15:28:16.774Z,6.23
2018-05-12T15:30:44.290Z,4.30
2018-05-12T15:33:11.778Z,4.27
2018-05-12T15:35:39.266Z,7.03
2018-05-12T15:38:06.782Z,4.10
2018-05-12T15:40:34.275Z,3.77
2018-05-12T15:43:01.776Z,7.33
2018-05-12T15:45:29.291Z,4.13
2018-05-12T15:47:56.776Z,3.97
2018-05-12T15:50:24.266Z,3.70
2018-05-12T15:52:51.786Z,7.13
2018-05-12T15:55:19.265Z,4.60
2018-05-12T15:57:46.758Z,4.23
2018-05-12T16:00:14.275Z,3.63
2018-05-12T16:02:41.771Z,5.07
2018-05-12T16:05:09.309Z,3.73
2018-05-12T16:07:36.827Z,3.90
2018-05-12T16:10:04.317Z,3.60
2018-05-12T16:12:31.801Z,3.37
2018-05-12T16:14:59.314Z,7.33
2018-05-12T16:17:26.793Z,3.93
2018-05-12T16:19:54.278Z,3.80
2018-05-12T16:22:21.795Z,4.13
2018-05-12T16:24:49.284Z,5.00
2018-05-12T16:27:16.774Z,3.70
2018-05-12T16:29:44.295Z,3.97
2018-05-12T16:32:11.782Z,4.30
2018-05-12T16:34:39.275Z,4.87
2018-05-12T16:37:06.785Z,4.33
2018-05-12T16:39:34.351Z,3.57
2018-05-12T16:42:01.843Z,3.80
2018-05-12T16:44:29.396Z,5.20
2018-05-12T16:46:56.874Z,4.50
2018-05-12T16:49:24.356Z,7.13
2018-05-12T16:51:51.876Z,4.80
2018-05-12T16:54:19.386Z,5.23
2018-05-12T16:56:47.229Z,6.03
2018-05-12T16:59:14.771Z,5.37
2018-05-12T17:01:42.274Z,5.53
2018-05-12T17:04:09.787Z,6.30
2018-05-12T17:06:37.314Z,5.53
2018-05-12T17:09:05.755Z,5.10
2018-05-12T17:11:33.241Z,7.33
2018-05-12T17:14:00.760Z,4.33
2018-05-12T17:16:28.253Z,7.57
2018-05-12T17:18:55.747Z,4.60
2018-05-12T17:21:23.269Z,6.20
2018-05-12T17:23:50.762Z,6.53
2018-05-12T17:26:18.253Z,4.73
2018-05-12T17:28:45.785Z,8.00
2018-05-12T17:31:13.273Z,4.53
2018-05-12T17:33:40.767Z,4.70
2018-05-12T17:36:08.278Z,5.10
2018-05-12T17:38:35.780Z,5.17
2018-05-12T17:41:03.270Z,5.40
2018-05-12T17:43:30.799Z,6.83
2018-05-12T17:45:58.295Z,4.60
2018-05-12T17:48:25.787Z,5.73
2018-05-12T17:50:53.315Z,5.03
2018-05-12T17:53:20.819Z,5.50
2018-05-12T17:55:48.391Z,4.70
2018-05-12T17:58:15.844Z,5.13
2018-05-12T18:00:43.338Z,5.30
2018-05-12T18:03:10.830Z,8.77
2018-05-12T18:05:38.361Z,5.30
2018-05-12T18:08:05.860Z,5.37
2018-05-12T18:10:33.349Z,5.13
2018-05-12T18:13:00.867Z,5.37
2018-05-12T18:15:28.350Z,6.60
2018-05-12T18:17:55.849Z,4.83
2018-05-12T18:20:23.367Z,6.33
2018-05-12T18:22:50.922Z,6.73
2018-05-12T18:25:18.423Z,9.20
2018-05-12T18:27:45.943Z,5.97
2018-05-12T18:30:13.424Z,8.53
2018-05-12T18:32:40.913Z,5.13
2018-05-12T18:35:08.426Z,5.90
2018-05-12T18:37:35.918Z,6.93
2018-05-12T18:40:03.421Z,7.40
2018-05-12T18:42:30.952Z,5.37
2018-05-12T18:44:58.452Z,6.20
2018-05-12T18:47:25.941Z,6.17
2018-05-12T18:49:54.426Z,5.97
2018-05-12T18:52:22.058Z,6.87
2018-05-12T18:54:49.599Z,5.23
2018-05-12T18:57:17.175Z,7.37
2018-05-12T18:59:44.706Z,12.40
2018-05-12T19:02:12.289Z,7.90
2018-05-12T19:04:39.825Z,6.87
2018-05-12T19:07:07.388Z,6.60
2018-05-12T19:09:34.986Z,9.53
2018-05-12T19:12:02.550Z,7.50
2018-05-12T19:14:30.094Z,10.73
2018-05-12T19:16:57.674Z,7.30
2018-05-12T19:19:25.264Z,6.73
2018-05-12T19:21:52.777Z,6.83
2018-05-12T19:24:20.289Z,7.50
2018-05-12T19:26:47.842Z,6.50
2018-05-12T19:29:15.443Z,8.50
2018-05-12T19:31:42.994Z,7.57
2018-05-12T19:34:10.569Z,7.00
2018-05-12T19:36:38.099Z,7.40
2018-05-12T19:39:05.631Z,7.53
2018-05-12T19:41:33.178Z,7.17
2018-05-12T19:44:00.717Z,7.50
2018-05-12T19:46:28.221Z,10.10
2018-05-12T19:48:55.786Z,8.10
2018-05-12T19:51:23.337Z,10.00
2018-05-12T19:53:50.858Z,14.03
2018-05-12T19:56:18.429Z,9.27
2018-05-12T19:58:45.983Z,8.87
2018-05-12T20:01:13.621Z,9.47
2018-05-12T20:03:41.209Z,9.50
2018-05-12T20:06:08.764Z,8.53
2018-05-12T20:08:36.322Z,8.50
2018-05-12T20:11:03.892Z,9.33
2018-05-12T20:13:31.488Z,8.60
2018-05-12T20:15:59.110Z,12.83
2018-05-12T20:18:26.653Z,8.53
2018-05-12T20:20:54.514Z,8.40
2018-05-12T20:23:22.055Z,7.40
2018-05-12T20:25:49.938Z,10.67
2018-05-12T20:28:17.594Z,12.20
2018-05-12T20:30:45.412Z,11.33
2018-05-12T20:33:12.972Z,11.83
2018-05-12T20:35:40.504Z,9.40
2018-05-12T20:38:08.013Z,9.03
2018-05-12T20:40:35.590Z,8.50
2018-05-12T20:43:03.152Z,13.90
2018-05-12T20:45:30.710Z,7.80
2018-05-12T20:47:58.269Z,11.77
2018-05-12T20:50:25.801Z,10.33
2018-05-12T20:52:53.324Z,8.90
2018-05-12T20:55:20.840Z,7.83
2018-05-12T20:57:49.636Z,12.43
2018-05-12T21:00:17.207Z,9.37
2018-05-12T21:02:45.238Z,10.27
2018-05-12T21:05:12.742Z,7.70
2018-05-12T21:07:40.263Z,7.97
2018-05-12T21:10:07.822Z,10.27
2018-05-12T21:12:35.354Z,8.93
2018-05-12T21:15:02.952Z,11.63
2018-05-12T21:17:30.722Z,8.90
2018-05-12T21:19:58.239Z,10.17
2018-05-12T21:22:25.762Z,7.40
2018-05-12T21:24:53.289Z,7.13
2018-05-12T21:27:20.811Z,7.23
2018-05-12T21:29:48.356Z,8.87
2018-05-12T21:32:15.965Z,10.53
2018-05-12T21:34:43.492Z,9.93
2018-05-12T21:37:11.042Z,9.50
2018-05-12T21:39:38.678Z,10.20
2018-05-12T21:42:06.188Z,7.30
2018-05-12T21:44:33.719Z,7.87
2018-05-12T21:47:01.297Z,7.83
2018-05-12T21:49:28.796Z,8.97
2018-05-12T21:51:56.318Z,7.67
2018-05-12T21:54:23.845Z,7.70
2018-05-12T21:56:51.334Z,7.43
2018-05-12T21:59:18.858Z,10.87
2018-05-12T22:01:46.394Z,12.40
2018-05-12T22:04:13.910Z,8.47
2018-05-12T22:06:41.425Z,7.80
2018-05-12T22:09:08.986Z,8.93
2018-05-12T22:11:36.522Z,8.93
2018-05-12T22:14:04.067Z,12.60
2018-05-12T22:16:31.593Z,9.03
2018-05-12T22:18:59.098Z,7.97
2018-05-12T22:21:26.638Z,9.53
2018-05-12T22:23:54.206Z,7.70
2018-05-12T22:26:21.767Z,12.97
2018-05-12T22:28:49.314Z,8.33
2018-05-12T22:31:16.849Z,9.27
2018-05-12T22:33:44.359Z,8.87
2018-05-12T22:36:11.864Z,8.47
2018-05-12T22:38:39.448Z,7.67
2018-05-12T22:41:06.990Z,8.77
2018-05-12T22:43:34.493Z,8.87
2018-05-12T22:46:02.059Z,8.17
2018-05-12T22:48:29.579Z,9.00
2018-05-12T22:50:57.127Z,8.50
2018-05-12T22:53:24.688Z,11.00
2018-05-12T22:55:52.215Z,10.07
2018-05-12T22:58:20.371Z,9.80
2018-05-12T23:00:47.922Z,8.27
2018-05-12T23:03:15.470Z,9.33
2018-05-12T23:05:43.036Z,10.70
2018-05-12T23:08:10.612Z,9.67
2018-05-12T23:10:38.148Z,10.27
2018-05-12T23:13:05.685Z,12.53
2018-05-12T23:15:33.263Z,9.33
2018-05-12T23:18:00.801Z,11.03
2018-05-12T23:20:28.311Z,10.37
2018-05-12T23:22:55.858Z,9.17
2018-05-12T23:25:23.415Z,12.20
2018-05-12T23:27:50.936Z,10.57
2018-05-12T23:30:18.509Z,9.87
2018-05-12T23:32:46.055Z,8.97
2018-05-12T23:35:13.586Z,10.90
2018-05-12T23:37:41.150Z,9.50
2018-05-12T23:40:08.658Z,10.87
2018-05-12T23:42:36.180Z,10.13
2018-05-12T23:45:03.738Z,14.33
2018-05-12T23:47:31.259Z,11.13
2018-05-12T23:49:58.778Z,15.17
2018-05-12T23:52:26.299Z,11.90
2018-05-12T23:54:53.781Z,9.67
2018-05-12T23:57:21.299Z,11.67
2018-05-12T23:59:48.871Z,10.53
